Limon, Colorado
Current Conditions -  °F | °C
As of 8:55 PM on Thursday 27 Nov 2014 (Local Time) from KLIC Reporting Station
Clear Clear  
Wind Chill: 22°   Ceiling: Unl
Heat Index: 28°   Visibility: 10mi
Dew Point: 18°   Wind: 6mph
Humidity: 66%   Direction: 330°NNW
Pressure: 30.12"   Gusts: NA
Location:  39.26°N, 103.69°W
Report Text: KLIC 280355Z AUTO 33005KT 10SM CLR M02/M08 A3012 RMK AO2 SLP211 T10221078
Loading
Personal Weather Stations






























Interactive Weather Map New forecast layout! Learn more

10-Day Weather Forecast

Advertisements
Track Severe Weather on mobile